Time;durP1;ratioP1;P1;durP2;ratioP2;P2;SDS_P1;SDS_P2;PMS_P1;PMS_P2;Temp;Humidity;BMP_temperature;BMP_pressure;BME280_temperature;BME280_humidity;BME280_pressure;Samples;Min_cycle;Max_cycle;Signal;HPM_P1;HPM_P2
2024/04/14 00:02:05;;;;;;;0.22;0.22;;;12.60;99.90;;;;;;5439034;26;20574;-76
2024/04/14 00:04:32;;;;;;;0.40;0.40;;;12.50;99.90;;;;;;5465183;26;20452;-77
2024/04/14 00:07:18;;;;;;;0.20;0.20;;;12.40;99.90;;;;;;5446733;26;20014;-76
2024/04/14 00:09:44;;;;;;;0.30;0.30;;;12.30;99.90;;;;;;5441731;26;20896;-76
2024/04/14 00:12:10;;;;;;;0.50;0.50;;;12.20;99.90;;;;;;5463365;26;20015;-76
2024/04/14 00:14:36;;;;;;;0.52;0.52;;;12.20;99.90;;;;;;5466758;26;20003;-77
2024/04/14 00:17:01;;;;;;;0.65;0.65;;;12.10;99.90;;;;;;5475331;26;20073;-76
2024/04/14 00:19:27;;;;;;;0.40;0.40;;;12.00;99.90;;;;;;5468675;26;20006;-77
2024/04/14 00:21:53;;;;;;;0.40;0.40;;;12.00;99.90;;;;;;5438535;26;20006;-77
2024/04/14 00:24:19;;;;;;;0.20;0.20;;;11.90;99.90;;;;;;5485196;26;20021;-74
2024/04/14 00:26:48;;;;;;;0.30;0.30;;;11.90;99.90;;;;;;5481193;26;20431;-75
2024/04/14 00:29:14;;;;;;;0.32;0.32;;;11.80;99.90;;;;;;5481023;26;20002;-74
2024/04/14 00:31:40;;;;;;;0.30;0.30;;;11.70;99.90;;;;;;5481347;26;20006;-74
2024/04/14 00:34:09;;;;;;;0.40;0.40;;;11.70;99.90;;;;;;5448742;26;20018;-75
2024/04/14 00:36:36;;;;;;;0.40;0.40;;;11.60;99.90;;;;;;5488935;26;20512;-75
2024/04/14 00:39:22;;;;;;;0.50;0.50;;;11.50;99.90;;;;;;5460699;26;20061;-76
2024/04/14 00:41:48;;;;;;;0.65;0.65;;;11.40;99.90;;;;;;5489575;26;20025;-76
2024/04/14 00:44:20;;;;;;;0.43;0.43;;;11.30;99.90;;;;;;5484301;26;20006;-74
2024/04/14 00:47:06;;;;;;;0.35;0.35;;;11.30;99.90;;;;;;5481505;26;20029;-74
2024/04/14 00:49:37;;;;;;;3.70;0.85;;;11.10;99.90;;;;;;5484042;26;20014;-74
2024/04/14 00:52:06;;;;;;;0.30;0.30;;;11.10;99.90;;;;;;5483801;26;20024;-75
2024/04/14 00:54:33;;;;;;;0.32;0.32;;;11.00;99.90;;;;;;5481834;26;20014;-73
2024/04/14 00:57:01;;;;;;;0.40;0.40;;;10.90;99.90;;;;;;5482184;26;20010;-73
2024/04/14 00:59:27;;;;;;;0.30;0.30;;;11.30;99.90;;;;;;5485433;26;20014;-73
2024/04/14 01:01:56;;;;;;;0.40;0.40;;;10.70;99.90;;;;;;5482708;26;20463;-73
2024/04/14 01:04:22;;;;;;;0.50;0.50;;;10.70;99.90;;;;;;5481849;26;20006;-73
2024/04/14 01:06:48;;;;;;;0.20;0.20;;;11.00;99.90;;;;;;5482787;26;20535;-73
2024/04/14 01:09:15;;;;;;;0.40;0.40;;;10.50;99.90;;;;;;5486039;26;20002;-73
2024/04/14 01:11:41;;;;;;;1.15;1.05;;;10.50;99.90;;;;;;5475461;26;20024;-73
2024/04/14 01:14:09;;;;;;;0.40;0.40;;;10.40;99.90;;;;;;5480910;26;20352;-73
2024/04/14 01:16:36;;;;;;;0.40;0.40;;;10.40;99.90;;;;;;5485461;26;20038;-74
2024/04/14 01:19:06;;;;;;;0.30;0.30;;;10.40;99.90;;;;;;5483453;26;20007;-74
2024/04/14 01:21:36;;;;;;;0.38;0.38;;;10.30;99.90;;;;;;5481227;26;20014;-74
2024/04/14 01:24:02;;;;;;;0.68;0.65;;;10.30;99.90;;;;;;5485285;26;20029;-74
2024/04/14 01:26:28;;;;;;;0.60;0.60;;;10.30;99.90;;;;;;5485606;26;20006;-74
2024/04/14 01:28:53;;;;;;;0.70;0.70;;;10.30;99.90;;;;;;5482113;26;20021;-75
2024/04/14 01:31:19;;;;;;;0.70;0.70;;;10.40;99.90;;;;;;5482409;26;20038;-74
2024/04/14 01:33:45;;;;;;;0.40;0.40;;;10.40;99.90;;;;;;5483700;26;20006;-74
2024/04/14 01:36:11;;;;;;;0.38;0.38;;;10.50;99.90;;;;;;5479813;26;20376;-74
2024/04/14 01:38:37;;;;;;;;;;;10.50;99.90;;;;;;5485737;26;20006;-74
2024/04/14 01:41:03;;;;;;;0.50;0.50;;;10.50;99.90;;;;;;5483983;26;20376;-74
2024/04/14 01:43:49;;;;;;;0.47;0.47;;;10.40;99.90;;;;;;5482049;26;20552;-74
2024/04/14 01:46:36;;;;;;;0.40;0.40;;;10.30;99.90;;;;;;5449347;26;20879;-74
2024/04/14 01:49:02;;;;;;;0.63;0.63;;;10.30;99.90;;;;;;5480626;26;20005;-74
2024/04/14 01:51:28;;;;;;;0.40;0.40;;;10.20;99.90;;;;;;5482247;26;20046;-76
2024/04/14 01:54:14;;;;;;;0.73;0.73;;;11.30;99.90;;;;;;5454804;26;20523;-76
2024/04/14 01:56:39;;;;;;;0.70;0.70;;;10.10;99.90;;;;;;5486074;26;20018;-75
2024/04/14 01:59:06;;;;;;;0.32;0.32;;;10.00;99.90;;;;;;5488343;26;20010;-74
2024/04/14 02:01:32;;;;;;;0.60;0.60;;;10.00;99.90;;;;;;5479583;26;20017;-73
2024/04/14 02:03:57;;;;;;;0.43;0.43;;;9.90;99.90;;;;;;5478787;26;20014;-74
2024/04/14 02:06:23;;;;;;;0.70;0.70;;;9.90;99.90;;;;;;5482171;26;20017;-74
2024/04/14 02:08:52;;;;;;;0.50;0.50;;;10.80;99.90;;;;;;5439935;26;20045;-75
2024/04/14 02:11:18;;;;;;;0.47;0.47;;;10.10;99.90;;;;;;5482071;26;20077;-74
2024/04/14 02:13:44;;;;;;;0.45;0.45;;;9.80;99.90;;;;;;5482130;26;20417;-75
2024/04/14 02:16:10;;;;;;;0.43;0.43;;;9.70;99.90;;;;;;5481564;26;20081;-74
2024/04/14 02:18:36;;;;;;;0.40;0.40;;;10.40;99.90;;;;;;5483110;26;20359;-72
2024/04/14 02:21:02;;;;;;;0.32;0.32;;;9.60;99.90;;;;;;5484577;26;20137;-72
2024/04/14 02:23:30;;;;;;;0.50;0.50;;;9.50;99.90;;;;;;5492003;26;20028;-72
2024/04/14 02:26:16;;;;;;;0.30;0.30;;;9.50;99.90;;;;;;5445182;26;20002;-74
2024/04/14 02:28:41;;;;;;;0.40;0.40;;;9.40;99.90;;;;;;5484354;26;20100;-73
2024/04/14 02:31:07;;;;;;;0.50;0.50;;;9.40;99.90;;;;;;5484436;26;20010;-74
2024/04/14 02:33:33;;;;;;;0.40;0.40;;;9.30;99.90;;;;;;5487138;26;20014;-74
2024/04/14 02:36:01;;;;;;;0.47;0.47;;;9.90;99.90;;;;;;5450106;26;20014;-75
2024/04/14 02:38:27;;;;;;;0.55;0.55;;;9.20;99.90;;;;;;5487968;25;20075;-74
2024/04/14 02:41:02;;;;;;;0.50;0.50;;;9.10;99.90;;;;;;5442242;26;20373;-75
2024/04/14 02:43:29;;;;;;;0.65;0.65;;;9.10;99.90;;;;;;5481127;26;20479;-75
2024/04/14 02:46:18;;;;;;;0.60;0.60;;;9.40;99.90;;;;;;5455549;26;21150;-75
2024/04/14 02:49:04;;;;;;;0.40;0.40;;;8.90;99.90;;;;;;5454845;26;20002;-74
2024/04/14 02:51:50;;;;;;;1.35;1.25;;;8.80;99.90;;;;;;5479075;26;20476;-74
2024/04/14 02:54:36;;;;;;;4.03;0.82;;;8.80;99.90;;;;;;5454668;26;20025;-75
2024/04/14 02:57:01;;;;;;;0.40;0.40;;;8.70;99.90;;;;;;5481158;26;20456;-73
2024/04/14 02:59:48;;;;;;;0.43;0.43;;;8.60;99.90;;;;;;5430092;26;20021;-72
2024/04/14 03:02:14;;;;;;;0.60;0.60;;;8.60;99.90;;;;;;5482366;26;20017;-73
2024/04/14 03:04:39;;;;;;;0.43;0.43;;;8.60;99.90;;;;;;5479573;26;20006;-72
2024/04/14 03:07:05;;;;;;;0.52;0.52;;;8.50;99.90;;;;;;5482318;26;20002;-73
2024/04/14 03:09:36;;;;;;;1.02;1.02;;;8.50;99.90;;;;;;5482805;26;20479;-73
2024/04/14 03:12:22;;;;;;;0.40;0.40;;;8.50;99.90;;;;;;5454915;26;20002;-73
2024/04/14 03:14:49;;;;;;;0.40;0.40;;;8.40;99.90;;;;;;5484638;26;20010;-73
2024/04/14 03:17:36;;;;;;;0.50;0.50;;;8.40;99.90;;;;;;5457645;26;20042;-73
2024/04/14 03:20:22;;;;;;;0.40;0.40;;;9.40;99.90;;;;;;5482437;26;20783;-73
2024/04/14 03:23:07;;;;;;;0.40;0.40;;;9.30;99.90;;;;;;5491629;25;20050;-73
2024/04/14 03:25:54;;;;;;;0.50;0.50;;;8.40;99.90;;;;;;5443841;26;20012;-75
2024/04/14 03:28:40;;;;;;;0.40;0.40;;;8.30;99.90;;;;;;5479996;26;20053;-74
2024/04/14 03:31:26;;;;;;;0.40;0.40;;;8.40;99.90;;;;;;5462097;26;20042;-73
2024/04/14 03:34:11;;;;;;;0.70;0.70;;;8.30;99.90;;;;;;5430938;26;20002;-73
2024/04/14 03:36:57;;;;;;;0.40;0.40;;;8.40;99.90;;;;;;5480685;26;20327;-74
2024/04/14 03:39:43;;;;;;;0.52;0.52;;;8.40;99.90;;;;;;5481200;26;20360;-73
2024/04/14 03:42:30;;;;;;;0.82;0.82;;;9.20;99.90;;;;;;5454338;26;20122;-74
2024/04/14 03:45:19;;;;;;;0.52;0.52;;;8.40;99.90;;;;;;5454999;26;20018;-74
2024/04/14 03:48:05;;;;;;;0.50;0.50;;;8.40;99.90;;;;;;5450296;26;20018;-74
2024/04/14 03:50:51;;;;;;;0.47;0.47;;;8.40;99.90;;;;;;5480573;26;20026;-74
2024/04/14 03:53:36;;;;;;;0.50;0.50;;;8.40;99.90;;;;;;5452956;26;20104;-73
2024/04/14 03:56:27;;;;;;;0.43;0.43;;;8.30;99.90;;;;;;5430052;26;20375;-75
2024/04/14 03:59:13;;;;;;;0.60;0.60;;;8.30;99.90;;;;;;5505521;25;20014;-74
2024/04/14 04:02:00;;;;;;;0.60;0.60;;;8.20;99.90;;;;;;5455605;26;20018;-74
2024/04/14 04:04:48;;;;;;;0.30;0.30;;;8.30;99.90;;;;;;5486761;26;20055;-74
2024/04/14 04:07:35;;;;;;;0.52;0.52;;;8.20;99.90;;;;;;5479498;26;20002;-74
2024/04/14 04:10:26;;;;;;;0.50;0.50;;;8.20;99.90;;;;;;5517244;25;20323;-74
2024/04/14 04:13:12;;;;;;;0.50;0.50;;;8.20;99.90;;;;;;5481433;26;20017;-73
2024/04/14 04:16:03;;;;;;;0.40;0.40;;;8.20;99.90;;;;;;5457765;26;20010;-74
2024/04/14 04:18:49;;;;;;;0.60;0.60;;;8.10;99.90;;;;;;5481896;26;20010;-74
2024/04/14 04:21:35;;;;;;;0.40;0.40;;;8.10;99.90;;;;;;5449604;26;20439;-74
2024/04/14 04:24:21;;;;;;;0.50;0.50;;;8.00;99.90;;;;;;5484910;26;20003;-74
2024/04/14 04:27:07;;;;;;;0.88;0.82;;;8.00;99.90;;;;;;5454337;26;20014;-74
2024/04/14 04:29:53;;;;;;;0.50;0.50;;;8.00;99.90;;;;;;5479464;26;20013;-75
2024/04/14 04:32:25;;;;;;;0.47;0.47;;;8.10;99.90;;;;;;5481788;26;20139;-74
2024/04/14 04:34:52;;;;;;;1.05;0.60;;;8.10;99.90;;;;;;5483059;26;20013;-74
2024/04/14 04:37:18;;;;;;;0.60;0.60;;;8.10;99.90;;;;;;5482901;26;20006;-74
2024/04/14 04:39:44;;;;;;;0.47;0.47;;;8.10;99.90;;;;;;5481866;26;20013;-74
2024/04/14 04:42:10;;;;;;;0.90;0.90;;;8.10;99.90;;;;;;5483024;26;20018;-74
2024/04/14 04:44:35;;;;;;;0.50;0.50;;;8.10;99.90;;;;;;5482918;26;20009;-74
2024/04/14 04:47:01;;;;;;;0.50;0.50;;;8.70;99.90;;;;;;5483433;26;20436;-74
2024/04/14 04:49:27;;;;;;;0.43;0.43;;;8.10;99.90;;;;;;5483506;26;20020;-74
2024/04/14 04:51:53;;;;;;;0.47;0.47;;;8.10;99.90;;;;;;5452854;26;20018;-74
2024/04/14 04:54:18;;;;;;;0.40;0.40;;;8.00;99.90;;;;;;5482744;26;20021;-75
2024/04/14 04:56:44;;;;;;;0.52;0.52;;;8.00;99.90;;;;;;5485993;26;20013;-75
2024/04/14 04:59:10;;;;;;;2.63;2.42;;;8.00;99.90;;;;;;5482375;26;20016;-74
2024/04/14 05:01:36;;;;;;;0.43;0.43;;;8.10;99.90;;;;;;5487545;26;20002;-74
2024/04/14 05:04:03;;;;;;;0.50;0.50;;;8.10;99.90;;;;;;5482875;26;20006;-73
2024/04/14 05:06:28;;;;;;;0.50;0.50;;;8.20;99.90;;;;;;5486309;26;20090;-74
2024/04/14 05:08:54;;;;;;;0.40;0.40;;;8.20;99.90;;;;;;5454100;26;20437;-73
2024/04/14 05:11:20;;;;;;;1.13;1.13;;;8.20;99.90;;;;;;5481939;26;20017;-73
2024/04/14 05:13:46;;;;;;;0.60;0.60;;;8.20;99.90;;;;;;5480034;26;20014;-73
2024/04/14 05:16:12;;;;;;;0.57;0.57;;;8.20;99.90;;;;;;5447222;26;20050;-73
2024/04/14 05:18:38;;;;;;;0.40;0.40;;;8.30;99.90;;;;;;5485365;26;20021;-73
2024/04/14 05:21:04;;;;;;;0.47;0.47;;;8.30;99.90;;;;;;5482942;26;20018;-74
2024/04/14 05:23:30;;;;;;;0.40;0.40;;;8.30;99.90;;;;;;5485353;26;20006;-74
2024/04/14 05:25:56;;;;;;;1.15;1.15;;;8.80;99.90;;;;;;5479294;26;20345;-74
2024/04/14 05:28:21;;;;;;;0.93;0.93;;;8.60;99.90;;;;;;5483762;26;20018;-73
2024/04/14 05:30:47;;;;;;;0.50;0.50;;;9.10;99.90;;;;;;5485329;26;20006;-74
2024/04/14 05:33:13;;;;;;;0.43;0.43;;;8.70;99.90;;;;;;5482663;26;20380;-73
2024/04/14 05:35:39;;;;;;;0.45;0.45;;;8.40;99.90;;;;;;5482469;26;20013;-73
2024/04/14 05:38:06;;;;;;;0.90;0.90;;;9.40;99.90;;;;;;5483866;26;20013;-74
2024/04/14 05:40:31;;;;;;;0.38;0.38;;;9.40;99.90;;;;;;5494095;26;20087;-75
2024/04/14 05:42:57;;;;;;;0.60;0.60;;;8.50;99.90;;;;;;5483585;26;20018;-74
2024/04/14 05:45:24;;;;;;;0.80;0.80;;;8.60;99.90;;;;;;5484722;26;20006;-74
2024/04/14 05:47:50;;;;;;;0.60;0.60;;;8.70;99.90;;;;;;5483537;26;20482;-74
2024/04/14 05:50:16;;;;;;;0.50;0.50;;;9.00;99.90;;;;;;5479714;26;20007;-74
2024/04/14 05:52:42;;;;;;;;;;;8.60;99.90;;;;;;5485556;26;20014;-74
2024/04/14 05:55:07;;;;;;;0.40;0.40;;;8.60;99.90;;;;;;5482648;26;19931;-75
2024/04/14 05:57:33;;;;;;;0.90;0.90;;;8.50;99.90;;;;;;5481577;26;20006;-75
2024/04/14 05:59:59;;;;;;;0.50;0.50;;;8.60;99.90;;;;;;5483304;26;20488;-74
2024/04/14 06:02:25;;;;;;;0.52;0.52;;;8.50;99.90;;;;;;5480704;26;20017;-75
2024/04/14 06:04:52;;;;;;;0.50;0.50;;;8.50;99.90;;;;;;5483404;26;20002;-74
2024/04/14 06:07:17;;;;;;;0.40;0.40;;;8.60;99.90;;;;;;5481891;26;20014;-75
2024/04/14 06:09:43;;;;;;;0.40;0.40;;;8.60;99.90;;;;;;5483017;26;20006;-73
2024/04/14 06:12:09;;;;;;;0.30;0.30;;;8.70;99.90;;;;;;5486776;26;20021;-73
2024/04/14 06:14:35;;;;;;;0.45;0.45;;;8.80;99.90;;;;;;5483453;26;20103;-73
2024/04/14 06:17:01;;;;;;;0.52;0.52;;;8.80;99.90;;;;;;5483346;26;20006;-74
2024/04/14 06:19:27;;;;;;;0.80;0.80;;;8.80;99.90;;;;;;5479817;26;20080;-75
2024/04/14 06:21:52;;;;;;;0.47;0.47;;;8.80;99.90;;;;;;5483158;26;20029;-75
2024/04/14 06:24:19;;;;;;;0.30;0.30;;;8.90;99.90;;;;;;5482602;26;20487;-75
2024/04/14 06:26:45;;;;;;;0.40;0.40;;;8.90;99.90;;;;;;5481806;26;20021;-75
2024/04/14 06:29:11;;;;;;;3.83;0.93;;;9.30;99.90;;;;;;5478625;26;20559;-74
2024/04/14 06:31:36;;;;;;;0.50;0.50;;;9.10;99.90;;;;;;5485203;26;20020;-74
2024/04/14 06:34:02;;;;;;;0.40;0.40;;;9.10;99.90;;;;;;5452737;26;20021;-74
2024/04/14 06:36:28;;;;;;;0.40;0.40;;;9.20;99.90;;;;;;5483674;26;20010;-73
2024/04/14 06:38:54;;;;;;;0.82;0.82;;;9.20;99.90;;;;;;5481226;26;20077;-75
2024/04/14 06:41:20;;;;;;;0.65;0.65;;;9.30;99.90;;;;;;5480235;26;20080;-73
2024/04/14 06:43:46;;;;;;;0.50;0.50;;;9.40;99.90;;;;;;5480420;26;20014;-73
2024/04/14 06:46:12;;;;;;;0.40;0.40;;;9.50;99.90;;;;;;5484508;26;20478;-74
2024/04/14 06:48:37;;;;;;;0.40;0.40;;;9.60;99.90;;;;;;5487094;25;20006;-76
2024/04/14 06:51:03;;;;;;;0.38;0.38;;;9.60;99.90;;;;;;5484275;26;20021;-74
2024/04/14 06:53:29;;;;;;;0.55;0.55;;;9.70;99.90;;;;;;5484572;26;20087;-74
2024/04/14 06:55:58;;;;;;;0.50;0.50;;;9.70;99.90;;;;;;5484844;26;20059;-74
2024/04/14 06:58:24;;;;;;;0.50;0.50;;;9.80;99.90;;;;;;5481789;26;20772;-74
2024/04/14 07:00:50;;;;;;;0.73;0.73;;;9.80;99.90;;;;;;5480256;26;20018;-74
2024/04/14 07:03:15;;;;;;;0.88;0.88;;;9.80;99.90;;;;;;5482160;26;20041;-74
2024/04/14 07:05:42;;;;;;;1.58;0.50;;;9.90;99.90;;;;;;5482633;26;20014;-74
2024/04/14 07:08:08;;;;;;;0.40;0.40;;;9.90;99.90;;;;;;5480772;26;20017;-75
2024/04/14 07:10:35;;;;;;;0.50;0.50;;;10.00;99.90;;;;;;5482449;26;20375;-75
2024/04/14 07:13:01;;;;;;;1.85;1.75;;;10.00;99.90;;;;;;5480824;26;20012;-74
2024/04/14 07:15:27;;;;;;;0.50;0.50;;;10.10;99.90;;;;;;5481406;26;20010;-74
2024/04/14 07:17:53;;;;;;;0.38;0.38;;;10.20;99.90;;;;;;5479951;26;20024;-75
2024/04/14 07:20:20;;;;;;;0.40;0.40;;;10.30;99.90;;;;;;5483142;26;20012;-74
2024/04/14 07:22:46;;;;;;;0.40;0.40;;;10.30;99.90;;;;;;5483213;26;20030;-73
2024/04/14 07:25:12;;;;;;;0.50;0.50;;;10.40;99.90;;;;;;5484336;26;20017;-74
2024/04/14 07:27:42;;;;;;;0.40;0.40;;;10.40;99.90;;;;;;5480810;26;20006;-75
2024/04/14 07:30:09;;;;;;;0.40;0.40;;;10.40;99.90;;;;;;5482716;26;20002;-75
2024/04/14 07:32:34;;;;;;;;;;;10.50;99.90;;;;;;5483939;26;20056;-74
2024/04/14 07:35:00;;;;;;;0.40;0.40;;;10.50;99.90;;;;;;5487418;26;19943;-75
2024/04/14 07:37:26;;;;;;;0.40;0.40;;;10.60;99.90;;;;;;5483154;26;20002;-75
2024/04/14 07:39:51;;;;;;;0.30;0.30;;;10.70;99.90;;;;;;5481190;26;20355;-75
2024/04/14 07:42:17;;;;;;;0.40;0.40;;;10.70;99.90;;;;;;5474657;26;20006;-75
2024/04/14 07:44:43;;;;;;;0.40;0.40;;;10.80;99.90;;;;;;5483012;26;20020;-74
2024/04/14 07:47:09;;;;;;;0.40;0.40;;;10.80;99.90;;;;;;5484364;26;20344;-74
2024/04/14 07:49:38;;;;;;;0.30;0.30;;;10.90;99.90;;;;;;5486687;26;20239;-74
2024/04/14 07:52:04;;;;;;;0.40;0.40;;;11.10;99.90;;;;;;5485771;26;20006;-74
2024/04/14 07:54:30;;;;;;;0.63;0.50;;;11.20;99.90;;;;;;5485236;26;20021;-75
2024/04/14 07:56:56;;;;;;;0.40;0.40;;;11.10;99.90;;;;;;5482871;26;20367;-76
2024/04/14 07:59:21;;;;;;;0.40;0.40;;;11.20;99.90;;;;;;5484938;26;20023;-73
2024/04/14 08:01:47;;;;;;;0.30;0.30;;;11.20;99.90;;;;;;5451609;26;19999;-74
2024/04/14 08:04:22;;;;;;;0.40;0.40;;;11.20;99.90;;;;;;5482258;26;20014;-75
2024/04/14 08:06:49;;;;;;;0.40;0.40;;;11.30;99.90;;;;;;5481417;26;20003;-74
2024/04/14 08:09:18;;;;;;;0.40;0.40;;;11.40;99.90;;;;;;5483444;26;20006;-73
2024/04/14 08:11:46;;;;;;;0.30;0.30;;;11.40;99.90;;;;;;5479618;26;20274;-74
2024/04/14 08:14:13;;;;;;;0.30;0.30;;;11.60;99.90;;;;;;5483379;26;20006;-74
2024/04/14 08:16:39;;;;;;;0.30;0.30;;;11.70;99.90;;;;;;5482678;26;20344;-73
2024/04/14 08:19:05;;;;;;;;;;;11.80;99.90;;;;;;5486466;26;20425;-74
2024/04/14 08:21:31;;;;;;;0.50;0.50;;;11.90;99.90;;;;;;5486267;26;19935;-75
2024/04/14 08:23:57;;;;;;;0.82;0.82;;;12.10;99.90;;;;;;5486261;26;20017;-74
2024/04/14 08:26:23;;;;;;;0.30;0.30;;;12.10;99.90;;;;;;5484815;26;20006;-74
2024/04/14 08:28:49;;;;;;;0.32;0.32;;;12.20;99.90;;;;;;5475571;26;20022;-75
2024/04/14 08:31:14;;;;;;;2.13;2.08;;;12.10;99.90;;;;;;5444660;26;20013;-76
2024/04/14 08:33:40;;;;;;;0.50;0.50;;;12.10;99.90;;;;;;5444916;26;20018;-76
2024/04/14 08:36:06;;;;;;;1.10;1.10;;;12.20;99.90;;;;;;5463198;26;20339;-75
2024/04/14 08:38:32;;;;;;;;;;;12.40;99.90;;;;;;5460340;26;19999;-75
2024/04/14 08:40:58;;;;;;;0.35;0.35;;;12.50;99.90;;;;;;5474213;26;19931;-75
2024/04/14 08:43:24;;;;;;;0.40;0.40;;;12.50;99.90;;;;;;5440873;26;20014;-75
2024/04/14 08:45:54;;;;;;;0.40;0.40;;;12.30;99.90;;;;;;5467427;26;20026;-77
2024/04/14 08:48:20;;;;;;;0.50;0.50;;;12.30;99.90;;;;;;5477227;26;20437;-76
2024/04/14 08:50:51;;;;;;;0.30;0.30;;;12.30;99.90;;;;;;5482261;26;20017;-76
2024/04/14 08:53:18;;;;;;;0.22;0.22;;;12.30;99.90;;;;;;5480122;26;20067;-75
2024/04/14 08:55:45;;;;;;;0.32;0.32;;;12.30;99.90;;;;;;5465493;26;20468;-77
2024/04/14 08:58:13;;;;;;;0.30;0.30;;;12.30;99.90;;;;;;5482956;26;20018;-82
2024/04/14 09:00:44;;;;;;;0.40;0.40;;;12.30;99.90;;;;;;5490433;26;20053;-84
2024/04/14 09:03:10;;;;;;;0.40;0.40;;;12.40;99.90;;;;;;5484040;26;20016;-84
2024/04/14 09:05:36;;;;;;;0.35;0.35;;;12.40;99.90;;;;;;5491479;26;19998;-84
2024/04/14 09:08:04;;;;;;;0.40;0.40;;;12.40;99.90;;;;;;5453197;26;20003;-83
2024/04/14 09:10:30;;;;;;;0.30;0.30;;;12.40;99.90;;;;;;5452910;26;20410;-85
2024/04/14 09:12:56;;;;;;;0.50;0.50;;;12.40;99.90;;;;;;5453329;26;20041;-83
2024/04/14 09:15:22;;;;;;;0.30;0.30;;;12.70;99.90;;;;;;5443711;26;20570;-87
2024/04/14 09:17:49;;;;;;;;;;;12.60;99.90;;;;;;5436322;26;20013;-86
2024/04/14 09:20:15;;;;;;;0.30;0.30;;;12.50;99.90;;;;;;5490132;26;19924;-84
2024/04/14 09:22:41;;;;;;;;;;;12.60;99.90;;;;;;5455928;26;20003;-84
2024/04/14 09:25:07;;;;;;;0.38;0.38;;;12.70;99.90;;;;;;5477372;26;20037;-84
2024/04/14 09:27:36;;;;;;;0.30;0.30;;;12.80;99.90;;;;;;5489545;26;20034;-83
2024/04/14 09:30:18;;;;;;;0.30;0.30;;;13.00;99.90;;;;;;5454242;26;20014;-84
2024/04/14 09:32:44;;;;;;;0.20;0.20;;;13.20;99.90;;;;;;5476610;26;20009;-82
2024/04/14 09:35:12;;;;;;;0.30;0.30;;;13.20;99.90;;;;;;5450758;26;20444;-84
2024/04/14 09:37:39;;;;;;;0.30;0.30;;;13.30;99.90;;;;;;5473016;26;20027;-84
2024/04/14 09:40:09;;;;;;;0.30;0.30;;;13.40;99.90;;;;;;5478461;26;20107;-84
2024/04/14 09:42:35;;;;;;;0.30;0.30;;;13.20;99.90;;;;;;5471807;26;20047;-84
2024/04/14 09:45:05;;;;;;;0.20;0.20;;;12.90;99.90;;;;;;5481803;26;20516;-84
2024/04/14 09:47:32;;;;;;;5.25;1.95;;;12.90;99.90;;;;;;5461469;26;20054;-82
2024/04/14 09:49:59;;;;;;;0.50;0.50;;;13.00;99.90;;;;;;5481852;26;20030;-86
2024/04/14 09:52:28;;;;;;;0.30;0.30;;;13.10;99.90;;;;;;5470012;26;20006;-84
2024/04/14 09:54:56;;;;;;;0.55;0.55;;;13.30;99.90;;;;;;5472832;26;20353;-83
2024/04/14 09:57:23;;;;;;;0.30;0.30;;;13.40;99.90;;;;;;5451214;26;20038;-81
2024/04/14 09:59:49;;;;;;;;;;;13.50;99.80;;;;;;5443923;26;19995;-83
2024/04/14 10:02:20;;;;;;;0.77;0.77;;;13.60;99.80;;;;;;5441276;26;20010;-84
2024/04/14 10:04:49;;;;;;;0.35;0.35;;;13.80;99.90;;;;;;5479232;26;19998;-83
2024/04/14 10:07:16;;;;;;;0.32;0.32;;;14.00;99.90;;;;;;5474449;26;20013;-84
2024/04/14 10:09:48;;;;;;;0.30;0.30;;;14.10;99.90;;;;;;5443406;26;20463;-85
2024/04/14 10:12:18;;;;;;;0.25;0.25;;;14.30;99.90;;;;;;5468271;26;20013;-84
2024/04/14 10:14:45;;;;;;;0.40;0.40;;;14.60;99.90;;;;;;5472510;26;20041;-85
2024/04/14 10:17:12;;;;;;;0.40;0.40;;;14.80;99.90;;;;;;5477679;26;20093;-82
2024/04/14 10:19:38;;;;;;;0.30;0.30;;;14.80;99.80;;;;;;5481583;26;20022;-85
2024/04/14 10:22:08;;;;;;;0.28;0.28;;;14.70;99.10;;;;;;5473932;26;20045;-84
2024/04/14 10:24:48;;;;;;;0.30;0.30;;;14.60;98.70;;;;;;5472192;26;19994;-83
2024/04/14 10:27:18;;;;;;;0.82;0.82;;;14.20;98.70;;;;;;5468165;26;20002;-85
2024/04/14 10:29:58;;;;;;;0.35;0.35;;;13.80;99.40;;;;;;5475240;26;19999;-84
2024/04/14 10:32:24;;;;;;;0.50;0.50;;;13.60;99.20;;;;;;5476323;26;20062;-84
2024/04/14 10:34:49;;;;;;;;;;;13.60;98.70;;;;;;5470575;26;20142;-86
2024/04/14 10:37:22;;;;;;;0.32;0.32;;;13.50;99.40;;;;;;5470770;26;19964;-86
2024/04/14 10:39:53;;;;;;;0.93;0.80;;;13.60;98.70;;;;;;5461552;26;20002;-85
2024/04/14 10:42:20;;;;;;;0.40;0.40;;;13.70;98.80;;;;;;5465064;26;20480;-84
2024/04/14 10:44:46;;;;;;;1.27;0.60;;;13.80;99.30;;;;;;5472517;26;20014;-87
2024/04/14 10:47:18;;;;;;;0.30;0.30;;;13.90;99.30;;;;;;5473967;26;20329;-85
2024/04/14 10:49:48;;;;;;;0.30;0.30;;;13.90;99.90;;;;;;5471506;26;20012;-85
2024/04/14 10:52:18;;;;;;;0.30;0.30;;;14.00;98.80;;;;;;5448467;26;20088;-86
2024/04/14 10:54:44;;;;;;;0.22;0.22;;;14.20;98.90;;;;;;5473029;26;20002;-83
2024/04/14 10:57:11;;;;;;;1.15;1.15;;;14.30;98.90;;;;;;5469335;26;20008;-86
2024/04/14 10:59:37;;;;;;;0.95;0.95;;;14.30;99.30;;;;;;5489694;26;20007;-84
2024/04/14 11:02:04;;;;;;;;;;;14.20;99.40;;;;;;5482113;26;20006;-84
2024/04/14 11:04:34;;;;;;;0.50;0.50;;;14.20;99.70;;;;;;5460520;26;20031;-85
2024/04/14 11:07:01;;;;;;;1.40;1.30;;;14.10;99.80;;;;;;5477401;25;20009;-85
2024/04/14 11:09:29;;;;;;;0.30;0.30;;;14.10;99.60;;;;;;5443344;26;20030;-86
2024/04/14 11:11:57;;;;;;;0.40;0.40;;;13.90;99.70;;;;;;5481727;26;20055;-83
2024/04/14 11:14:23;;;;;;;0.88;0.88;;;13.90;99.60;;;;;;5480758;26;20006;-83
2024/04/14 11:16:49;;;;;;;0.30;0.30;;;14.00;99.90;;;;;;5475218;26;19998;-85
2024/04/14 11:19:15;;;;;;;0.30;0.30;;;14.20;99.90;;;;;;5490022;26;20009;-85
2024/04/14 11:21:41;;;;;;;0.30;0.30;;;14.40;99.20;;;;;;5487889;26;19994;-83
2024/04/14 11:24:10;;;;;;;0.93;0.93;;;14.30;98.60;;;;;;5439955;26;20012;-87
2024/04/14 11:26:38;;;;;;;0.32;0.32;;;14.10;99.20;;;;;;5470298;26;19998;-86
2024/04/14 11:29:04;;;;;;;0.30;0.30;;;13.80;99.00;;;;;;5407480;26;20452;-84
2024/04/14 11:31:31;;;;;;;0.40;0.40;;;13.60;99.30;;;;;;5452696;26;21805;-85
2024/04/14 11:33:58;;;;;;;0.22;0.22;;;13.60;99.40;;;;;;5460163;26;20022;-87
2024/04/14 11:36:31;;;;;;;0.40;0.40;;;13.80;99.00;;;;;;5486266;25;20337;-85
2024/04/14 11:38:57;;;;;;;0.30;0.30;;;13.80;99.00;;;;;;5465321;26;20006;-84
2024/04/14 11:41:23;;;;;;;;;;;13.80;98.90;;;;;;5469475;26;20035;-81
2024/04/14 11:43:49;;;;;;;0.50;0.50;;;13.70;99.30;;;;;;5463689;26;20428;-84
2024/04/14 11:46:17;;;;;;;0.25;0.25;;;13.60;99.70;;;;;;5463045;26;20017;-83
2024/04/14 11:48:43;;;;;;;0.22;0.22;;;13.90;99.90;;;;;;5476704;26;19999;-85
2024/04/14 11:51:10;;;;;;;;;;;14.10;98.60;;;;;;5414868;26;20035;-83
2024/04/14 11:53:37;;;;;;;0.20;0.20;;;13.90;98.30;;;;;;5451652;26;19935;-82
2024/04/14 11:56:03;;;;;;;0.40;0.40;;;13.70;98.70;;;;;;5470325;26;20017;-83
2024/04/14 11:58:35;;;;;;;0.50;0.50;;;13.40;99.90;;;;;;5449847;26;19998;-83
2024/04/14 12:01:08;;;;;;;0.28;0.28;;;13.20;99.90;;;;;;5441933;26;20067;-82
2024/04/14 12:03:34;;;;;;;0.30;0.30;;;13.10;99.90;;;;;;5460612;26;20014;-82
2024/04/14 12:06:01;;;;;;;0.52;0.52;;;13.20;99.90;;;;;;5464454;26;19994;-83
2024/04/14 12:08:27;;;;;;;0.20;0.20;;;13.50;99.90;;;;;;5440157;26;20162;-82
2024/04/14 12:10:52;;;;;;;0.28;0.28;;;13.90;99.90;;;;;;5471745;26;20007;-83
2024/04/14 12:13:19;;;;;;;0.32;0.32;;;14.20;99.90;;;;;;5470061;26;20377;-84
2024/04/14 12:15:45;;;;;;;0.32;0.32;;;14.60;99.30;;;;;;5475608;26;19998;-83
2024/04/14 12:18:12;;;;;;;0.50;0.50;;;14.80;99.40;;;;;;5463663;26;20052;-83
2024/04/14 12:20:38;;;;;;;0.28;0.28;;;15.00;99.20;;;;;;5483013;26;20042;-83
2024/04/14 12:23:04;;;;;;;0.38;0.38;;;15.10;97.90;;;;;;5468777;26;20048;-83
2024/04/14 12:25:29;;;;;;;0.38;0.38;;;14.90;98.30;;;;;;5471820;26;20431;-83
2024/04/14 12:27:55;;;;;;;0.30;0.30;;;14.50;98.60;;;;;;5476563;26;19998;-84
2024/04/14 12:30:22;;;;;;;0.20;0.20;;;14.50;99.00;;;;;;5441523;26;20071;-82
2024/04/14 12:32:48;;;;;;;0.40;0.40;;;14.50;99.20;;;;;;5472945;26;20010;-83
2024/04/14 12:35:14;;;;;;;0.20;0.20;;;14.60;99.60;;;;;;5480023;26;19998;-83
2024/04/14 12:37:40;;;;;;;0.20;0.20;;;14.90;98.60;;;;;;5476448;26;19998;-82
2024/04/14 12:40:06;;;;;;;0.30;0.30;;;15.10;97.20;;;;;;5476702;26;20017;-82
2024/04/14 12:42:32;;;;;;;0.20;0.20;;;15.30;96.00;;;;;;5475269;26;20012;-83
2024/04/14 12:44:57;;;;;;;0.63;0.63;;;15.50;95.30;;;;;;5480679;26;19998;-85
2024/04/14 12:47:23;;;;;;;0.30;0.30;;;15.20;93.90;;;;;;5480353;26;20030;-83
2024/04/14 12:49:51;;;;;;;0.30;0.30;;;15.10;95.90;;;;;;5487917;26;20064;-83
2024/04/14 12:52:17;;;;;;;1.05;1.05;;;15.10;97.10;;;;;;5478700;26;20526;-84
2024/04/14 12:54:42;;;;;;;;;;;14.80;97.50;;;;;;5484672;26;19998;-82
2024/04/14 12:57:08;;;;;;;0.25;0.25;;;14.40;97.80;;;;;;5486683;26;19934;-82
2024/04/14 12:59:34;;;;;;;;;;;14.20;99.00;;;;;;5479541;26;20013;-84
2024/04/14 13:02:00;;;;;;;0.20;0.20;;;14.10;99.40;;;;;;5477142;26;19933;-82
2024/04/14 13:04:25;;;;;;;;;;;14.10;99.90;;;;;;5474052;26;20112;-84
2024/04/14 13:06:52;;;;;;;0.40;0.40;;;14.10;99.90;;;;;;5510162;26;19924;-84